• Join FlightAware (Why Join?)
  • Login
  • US Flag 
11:18AM EDT


 

Airport Tracker/Info


-or-


 

Live Flight TrackerFlight Track Log ✈ N8614Y ✈ 21-Apr-2014 ✈ KCOI - KVPC

Flight Track Log - Related Links

Times and Time Zones

All times are in EDT time to prevent confusion due to time zone crossing. See the N8614Y flight status page for this flight to view local times or setup timezone preferences in your user account.

Time Position Orientation Groundspeed Altitude Reporting Facility
EDT Latitude Longitude Course Direction KTS MPH feet Rate Location/Type
08:12AM 28.3667 -80.7167 270° West 107 123 1,400  Level Orlando TRACON
08:13AM 28.3667 -80.7333 270° West 114 131 1,800 900 Climbing Orlando TRACON
08:14AM 28.4000 -80.7500 336° Northwest 117 135 2,700 900 Climbing Orlando TRACON
08:15AM 28.4333 -80.7667 336° Northwest 129 148 3,600 960 Climbing Orlando TRACON
08:16AM 28.4667 -80.7833 336° Northwest 127 146 4,700 840 Climbing Orlando TRACON
08:17AM 28.5000 -80.7833 360° North 129 148 5,400 660 Climbing Orlando TRACON
08:18AM 28.5333 -80.8000 336° Northwest 127 146 6,100 720 Climbing Orlando TRACON
08:19AM 28.5667 -80.8167 336° Northwest 111 128 6,900 360 Climbing Orlando TRACON
08:20AM 28.6000 -80.8333 336° Northwest 148 170 6,900  Level Orlando TRACON
08:21AM 28.6333 -80.8500 336° Northwest 150 173 6,900  Level Orlando TRACON
08:22AM 28.6833 -80.8667 344° North 151 174 6,900  Level Orlando TRACON
08:24AM 28.7606 -80.8961 342° North 151 174 6,900  Level Jacksonville Center
08:25AM 28.7942 -80.9144 334° Northwest 154 177 6,900  Level Jacksonville Center
08:26AM 28.8339 -80.9278 344° North 151 174 6,900  Level Jacksonville Center
08:27AM 28.8781 -80.9458 340° North 152 175 6,900  Level Jacksonville Center
08:28AM 28.9200 -80.9642 339° North 154 177 6,900  Level Jacksonville Center
08:29AM 28.9578 -80.9775 343° North 154 177 6,900  Level Jacksonville Center
08:30AM 29.0019 -80.9958 340° North 155 178 6,900  Level Jacksonville Center
08:31AM 29.0397 -81.0092 343° North 154 177 6,900  Level Jacksonville Center
08:32AM 29.0797 -81.0275 338° Northwest 154 177 6,900  Level Jacksonville Center
08:33AM 29.1197 -81.0458 338° Northwest 152 175 6,900  Level Jacksonville Center
08:34AM 29.1594 -81.0592 344° North 153 176 6,900  Level Jacksonville Center
08:35AM 29.2014 -81.0750 342° North 154 177 6,900  Level Jacksonville Center
08:36AM 29.2433 -81.0933 339° North 154 177 6,900  Level Jacksonville Center
08:37AM 29.2811 -81.1094 340° North 152 175 6,900  Level Jacksonville Center
08:38AM 29.3253 -81.1300 338° Northwest 154 177 6,900  Level Jacksonville Center
08:39AM 29.3611 -81.1533 330° Northwest 155 178 6,900  Level Jacksonville Center
08:40AM 29.4031 -81.1644 347° North 151 174 6,900  Level Jacksonville Center
08:41AM 29.4428 -81.1781 343° North 150 173 6,900  Level Jacksonville Center
08:42AM 29.4828 -81.1964 338° Northwest 150 173 6,900  Level Jacksonville Center
08:43AM 29.5250 -81.2267 328° Northwest 153 176 6,900  Level Jacksonville Center
08:44AM 29.5567 -81.2500 327° Northwest 151 174 6,900  Level Jacksonville Center
08:45AM 29.5986 -81.2731 334° Northwest 152 175 6,900  Level Jacksonville Center
08:46AM 29.6406 -81.2964 334° Northwest 153 176 6,900  Level Jacksonville Center
08:47AM 29.6786 -81.3219 330° Northwest 154 177 6,900  Level Jacksonville Center
08:48AM 29.7164 -81.3453 332° Northwest 153 176 6,900  Level Jacksonville Center
08:49AM 29.7481 -81.3639 333° Northwest 154 177 6,900  Level Jacksonville Center
08:50AM 29.7942 -81.3967 328° Northwest 155 178 6,900  Level Jacksonville Center
08:51AM 29.8258 -81.4131 336° Northwest 152 175 6,900  Level Jacksonville Center
08:52AM 29.8678 -81.4411 330° Northwest 153 176 6,900  Level Jacksonville Center
08:53AM 29.9014 -81.4597 334° Northwest 153 176 6,900  Level Jacksonville Center
08:54AM 29.9353 -81.4856 327° Northwest 155 178 6,900  Level Jacksonville Center
08:55AM 29.9731 -81.5092 332° Northwest 152 175 6,900  Level Jacksonville Center
08:56AM 30.0150 -81.5350 332° Northwest 154 177 6,900  Level Jacksonville Center
08:57AM 30.0550 -81.5583 333° Northwest 155 178 6,900  Level Jacksonville Center
08:58AM 30.0928 -81.5817 332° Northwest 155 178 7,000  Climbing Jacksonville Center
08:59AM 30.1286 -81.6053 330° Northwest 154 177 7,000  Level Jacksonville Center
09:00AM 30.1642 -81.6264 333° Northwest 156 180 7,000  Level Jacksonville Center
09:01AM 30.2042 -81.6522 331° Northwest 157 181 7,000  Level Jacksonville Center
09:02AM 30.2439 -81.6758 333° Northwest 158 182 7,000  Level Jacksonville Center
09:03AM 30.2797 -81.6994 330° Northwest 156 180 7,000  Level Jacksonville Center
09:04AM 30.3156 -81.7231 330° Northwest 158 182 7,000  Level Jacksonville Center
09:05AM 30.3575 -81.7514 330° Northwest 160 184 7,000  Level Jacksonville Center
09:06AM 30.3994 -81.7775 332° Northwest 161 185 7,000  Level Jacksonville Center
09:07AM 30.4394 -81.8011 333° Northwest 160 184 7,000  Level Jacksonville Center
09:08AM 30.4772 -81.8272 329° Northwest 161 185 7,000  Level Jacksonville Center
09:09AM 30.5169 -81.8533 330° Northwest 161 185 7,000  Level Jacksonville Center
09:10AM 30.5569 -81.8769 333° Northwest 161 185 7,000  Level Jacksonville Center
09:11AM 30.5947 -81.9006 332° Northwest 162 186 7,000  Level Jacksonville Center
09:12AM 30.6344 -81.9269 330° Northwest 162 186 7,000  Level Jacksonville Center
09:13AM 30.6786 -81.9506 335° Northwest 162 186 7,000  Level Jacksonville Center
09:14AM 30.7058 -81.9744 323° Northwest 162 186 7,000  Level Jacksonville Center
09:15AM 30.7458 -82.0006 331° Northwest 162 186 7,000  Level Jacksonville Center
09:16AM 30.7856 -82.0244 333° Northwest 162 186 7,000  Level Jacksonville Center
09:17AM 30.8275 -82.0506 332° Northwest 162 186 7,000  Level Jacksonville Center
09:18AM 30.8653 -82.0769 329° Northwest 162 186 7,000  Level Jacksonville Center
09:19AM 30.9072 -82.1033 332° Northwest 162 186 7,000  Level Jacksonville Center
09:20AM 30.9450 -82.1297 329° Northwest 162 186 7,000  Level Jacksonville Center
09:21AM 30.9847 -82.1558 331° Northwest 162 186 7,000  Level Jacksonville Center
09:22AM 31.0267 -82.1775 336° Northwest 162 186 7,000  Level Jacksonville Center
09:23AM 31.0664 -82.2039 330° Northwest 162 186 7,000  Level Jacksonville Center
09:24AM 31.1083 -82.2278 334° Northwest 162 186 7,000  Level Jacksonville Center
09:25AM 31.1481 -82.2542 330° Northwest 162 186 7,000  Level Jacksonville Center
09:26AM 31.1878 -82.2781 333° Northwest 162 186 7,000 180 Level Jacksonville Center
09:27AM 31.2256 -82.3022 331° Northwest 162 186 7,400 420 Climbing Jacksonville Center
09:28AM 31.2592 -82.3189 337° Northwest 155 178 7,900 300 Climbing Jacksonville Center
09:29AM 31.2967 -82.3431 331° Northwest 150 173 8,000  Climbing Jacksonville Center
09:30AM 31.3344 -82.3672 331° Northwest 150 173 8,000  Level Jacksonville Center
09:31AM 31.3742 -82.3889 335° Northwest 150 173 8,000  Level Jacksonville Center
09:32AM 31.4161 -82.4153 332° Northwest 155 178 8,000  Level Jacksonville Center
09:33AM 31.4558 -82.4419 330° Northwest 160 184 8,000  Level Jacksonville Center
09:34AM 31.4956 -82.4639 335° Northwest 160 184 8,000  Level Jacksonville Center
09:35AM 31.5333 -82.4881 331° Northwest 160 184 8,000  Level Jacksonville Center
09:36AM 31.5750 -82.5147 331° Northwest 160 184 8,000  Level Jacksonville Center
09:37AM 31.6147 -82.5389 333° Northwest 166 191 8,000  Level Jacksonville Center
09:38AM 31.6525 -82.5631 331° Northwest 166 191 8,000  Level Jacksonville Center
09:39AM 31.6922 -82.5875 332° Northwest 166 191 8,000  Level Jacksonville Center
09:40AM 31.7342 -82.6117 334° Northwest 166 191 8,000  Level Jacksonville Center
09:41AM 31.7694 -82.6361 329° Northwest 166 191 8,000  Level Jacksonville Center
09:42AM 31.8114 -82.6603 334° Northwest 161 185 8,000  Level Jacksonville Center
09:43AM 31.8531 -82.6847 334° Northwest 166 191 8,000  Level Jacksonville Center
09:44AM 31.8928 -82.7114 330° Northwest 161 185 8,000  Level Jacksonville Center
09:45AM 31.9325 -82.7383 330° Northwest 161 185 8,000  Level Jacksonville Center
09:46AM 31.9722 -82.7628 332° Northwest 161 185 8,000  Level Jacksonville Center
09:47AM 32.0119 -82.7897 330° Northwest 166 191 8,000  Level Jacksonville Center
09:49AM 32.0833 -82.8333 333° Northwest 162 186 8,000  Level Atlanta TRACON
09:50AM 32.1167 -82.8500 337° Northwest 168 193 8,000 -60 Level Atlanta TRACON
09:51AM 32.1667 -82.8833 331° Northwest 167 192 7,900 -60 Descending Atlanta TRACON
09:52AM 32.2000 -82.9167 320° Northwest 165 190 7,900  Level Atlanta TRACON
09:53AM 32.2500 -82.9333 344° North 165 190 7,900  Level Atlanta TRACON
09:54AM 32.2833 -82.9667 320° Northwest 166 191 7,900  Level Atlanta TRACON
09:55AM 32.3167 -82.9833 337° Northwest 163 188 7,900  Level Atlanta TRACON
09:56AM 32.3667 -83.0167 331° Northwest 164 189 7,900  Level Atlanta TRACON
09:57AM 32.4000 -83.0333 337° Northwest 163 188 7,900  Level Atlanta TRACON
09:58AM 32.4500 -83.0667 331° Northwest 163 188 7,900  Level Atlanta TRACON
09:59AM 32.4833 -83.0833 337° Northwest 163 188 7,900  Level Atlanta TRACON
10:00AM 32.5167 -83.1000 337° Northwest 163 188 7,900  Level Atlanta TRACON
10:01AM 32.5667 -83.1333 331° Northwest 163 188 7,900  Level Atlanta TRACON
10:02AM 32.6000 -83.1667 320° Northwest 162 186 7,900  Level Atlanta TRACON
10:03AM 32.6333 -83.1833 337° Northwest 161 185 7,900  Level Atlanta TRACON
10:04AM 32.6833 -83.2167 331° Northwest 163 188 7,900  Level Atlanta TRACON
10:05AM 32.7167 -83.2333 337° Northwest 162 186 7,900  Level Atlanta TRACON
10:06AM 32.7667 -83.2667 331° Northwest 162 186 7,900  Level Atlanta TRACON
10:07AM 32.8000 -83.2833 337° Northwest 161 185 7,900  Level Atlanta TRACON
10:08AM 32.8333 -83.3167 320° Northwest 161 185 7,900  Level Atlanta TRACON
10:09AM 32.8667 -83.3333 337° Northwest 160 184 7,900  Level Atlanta TRACON
10:10AM 32.9167 -83.3667 331° Northwest 162 186 7,900  Level Atlanta TRACON
10:11AM 32.9500 -83.3833 337° Northwest 163 188 7,900  Level Atlanta TRACON
10:12AM 33.0000 -83.4167 331° Northwest 163 188 7,900  Level Atlanta TRACON
10:13AM 33.0333 -83.4333 337° Northwest 161 185 7,900  Level Atlanta TRACON
10:14AM 33.0667 -83.4667 320° Northwest 166 191 7,900  Level Atlanta TRACON
10:15AM 33.1167 -83.4833 344° North 164 189 7,900  Level Atlanta TRACON
10:16AM 33.1500 -83.5167 320° Northwest 165 190 7,900  Level Atlanta TRACON
10:17AM 33.2000 -83.5333 344° North 166 191 7,900  Level Atlanta TRACON
10:18AM 33.2333 -83.5667 320° Northwest 168 193 7,900  Level Atlanta TRACON
10:19AM 33.2667 -83.5833 337° Northwest 167 192 7,900  Level Atlanta TRACON
10:20AM 33.3167 -83.6167 331° Northwest 170 196 7,900  Level Atlanta TRACON
10:21AM 33.3500 -83.6500 320° Northwest 171 197 7,900  Level Atlanta TRACON
10:22AM 33.4000 -83.6667 344° North 171 197 7,900 -300 Level Atlanta TRACON
10:23AM 33.4333 -83.7000 320° Northwest 180 207 7,400 -540 Descending Atlanta TRACON
10:23AM 33.4667 -83.7333 320° Northwest 179 206 6,900 -300 Descending Atlanta TRACON
10:24AM 33.5167 -83.7667 331° Northwest 162 186 6,900  Level Atlanta TRACON
10:25AM 33.5500 -83.7833 337° Northwest 158 182 6,900  Level Atlanta TRACON
10:26AM 33.6000 -83.8000 344° North 158 182 6,900  Level Atlanta TRACON
10:27AM 33.6333 -83.8167 337° Northwest 158 182 6,900 -60 Level Atlanta TRACON
10:28AM 33.6833 -83.8333 344° North 160 184 6,800 -300 Descending Atlanta TRACON
10:29AM 33.7333 -83.8333 360° North 178 205 6,300 -480 Descending Atlanta TRACON
10:31AM 33.7667 -83.8667 320° Northwest 178 205 5,900 -240 Descending Atlanta TRACON
10:31AM 33.8000 -83.9000 320° Northwest 169 194 5,900  Level Atlanta TRACON
10:32AM 33.8333 -83.9333 320° Northwest 166 191 5,900  Level Atlanta TRACON
10:33AM 33.8667 -83.9833 309° West 166 191 5,900  Level Atlanta TRACON
10:34AM 33.8833 -84.0333 292° West 166 191 5,900  Level Atlanta TRACON
10:35AM 33.9000 -84.0833 292° West 169 194 5,900  Level Atlanta TRACON
10:36AM 33.9167 -84.1333 292° West 169 194 5,900  Level Atlanta TRACON
10:37AM 33.9333 -84.1833 292° West 179 206 5,900  Level Atlanta TRACON
10:38AM 33.9333 -84.2500 270° West 164 189 5,900  Level Atlanta TRACON
10:39AM 33.9500 -84.3000 292° West 173 199 5,900  Level Atlanta TRACON
10:40AM 33.9667 -84.3500 292° West 168 193 5,900  Level Atlanta TRACON
10:41AM 33.9833 -84.4000 292° West 164 189 5,900 -120 Level Atlanta TRACON
10:42AM 34.0000 -84.4500 292° West 168 193 5,700 -300 Descending Atlanta TRACON
10:43AM 34.0167 -84.5000 292° West 172 198 5,300 -540 Descending Atlanta TRACON
10:44AM 34.0333 -84.5667 287° West 178 205 4,700 -660 Descending Atlanta TRACON
10:45AM 34.0500 -84.6167 292° West 184 212 4,100 -540 Descending Atlanta TRACON
10:46AM 34.0667 -84.6667 292° West 183 211 3,700 -420 Descending Atlanta TRACON